Pincourt, Canada
Current Conditions -  °F | °C
As of 8:00 AM on Sunday 21 Dec 2014 (Local Time) from CYUL Reporting Station
Light Snow Light Snow  
Wind Chill:   Ceiling: 1700
Heat Index: 16°   Visibility: 1.5mi
Dew Point: 12°   Wind: 9mph
Humidity: 86%   Direction: 40°NE
Pressure: 30.38"   Gusts: NA
Location:  45.37°N, 73.98°W
Report Text: CYUL 211300Z 04008KT 1 1/2SM -SN BR FEW008 OVC017 M09/M11 A3038 RMK SF2SC6 VIS NW-N 3 SLP292
Loading
Personal Weather Stations






























Interactive Weather Map New forecast layout! Learn more

10-Day Weather Forecast

Advertisements
Track Severe Weather on mobile